sensor_id;sensor_type;location;lat;lon;timestamp;pressure;altitude;pressure_sealevel;temperature;humidity
74613;BME280;63119;51.788;8.824;2022-10-15T00:00:30;99273.50;;;14.43;88.46
74613;BME280;63119;51.788;8.824;2022-10-15T00:02:56;99276.19;;;14.33;89.08
74613;BME280;63119;51.788;8.824;2022-10-15T00:05:22;99269.72;;;14.36;88.77
74613;BME280;63119;51.788;8.824;2022-10-15T00:07:47;99266.38;;;14.34;88.71
74613;BME280;63119;51.788;8.824;2022-10-15T00:10:13;99271.41;;;14.37;88.15
74613;BME280;63119;51.788;8.824;2022-10-15T00:12:39;99267.78;;;14.38;88.43
74613;BME280;63119;51.788;8.824;2022-10-15T00:15:05;99257.25;;;14.27;88.48
74613;BME280;63119;51.788;8.824;2022-10-15T00:17:32;99270.44;;;14.18;89.13
74613;BME280;63119;51.788;8.824;2022-10-15T00:19:57;99260.66;;;14.19;89.12
74613;BME280;63119;51.788;8.824;2022-10-15T00:22:23;99264.13;;;14.19;88.52
74613;BME280;63119;51.788;8.824;2022-10-15T00:24:48;99258.69;;;14.21;88.04
74613;BME280;63119;51.788;8.824;2022-10-15T00:27:13;99260.22;;;14.14;88.74
74613;BME280;63119;51.788;8.824;2022-10-15T00:29:38;99268.78;;;14.08;88.86
74613;BME280;63119;51.788;8.824;2022-10-15T00:32:04;99268.38;;;14.12;88.47
74613;BME280;63119;51.788;8.824;2022-10-15T00:34:29;99270.47;;;14.09;88.32
74613;BME280;63119;51.788;8.824;2022-10-15T00:36:54;99267.25;;;14.05;88.31
74613;BME280;63119;51.788;8.824;2022-10-15T00:39:20;99267.81;;;14.09;88.33
74613;BME280;63119;51.788;8.824;2022-10-15T00:41:45;99269.34;;;14.11;88.50
74613;BME280;63119;51.788;8.824;2022-10-15T00:46:46;99255.34;;;14.09;88.75
74613;BME280;63119;51.788;8.824;2022-10-15T00:49:25;99258.00;;;14.09;88.67
74613;BME280;63119;51.788;8.824;2022-10-15T00:52:24;99252.97;;;14.16;88.46
74613;BME280;63119;51.788;8.824;2022-10-15T00:54:58;99246.81;;;14.06;89.35
74613;BME280;63119;51.788;8.824;2022-10-15T00:57:25;99241.50;;;13.96;89.43
74613;BME280;63119;51.788;8.824;2022-10-15T00:59:53;99238.72;;;13.98;89.56
74613;BME280;63119;51.788;8.824;2022-10-15T01:02:21;99238.28;;;14.02;88.69
74613;BME280;63119;51.788;8.824;2022-10-15T01:04:47;99238.28;;;13.93;89.23
74613;BME280;63119;51.788;8.824;2022-10-15T01:07:13;99231.84;;;13.95;88.85
74613;BME280;63119;51.788;8.824;2022-10-15T01:09:39;99244.16;;;13.96;88.45
74613;BME280;63119;51.788;8.824;2022-10-15T01:12:14;99239.13;;;13.93;88.46
74613;BME280;63119;51.788;8.824;2022-10-15T01:14:49;99232.41;;;13.89;88.64
74613;BME280;63119;51.788;8.824;2022-10-15T01:17:20;99232.69;;;13.86;88.73
74613;BME280;63119;51.788;8.824;2022-10-15T01:20:09;99236.09;;;13.88;88.94
74613;BME280;63119;51.788;8.824;2022-10-15T01:22:55;99229.53;;;13.73;89.41
74613;BME280;63119;51.788;8.824;2022-10-15T01:25:38;99224.91;;;13.75;89.36
74613;BME280;63119;51.788;8.824;2022-10-15T01:34:12;99220.81;;;13.90;88.57
74613;BME280;63119;51.788;8.824;2022-10-15T01:36:57;99221.50;;;13.92;88.43
74613;BME280;63119;51.788;8.824;2022-10-15T01:39:31;99217.19;;;13.91;88.30
74613;BME280;63119;51.788;8.824;2022-10-15T01:42:06;99215.78;;;13.87;87.92
74613;BME280;63119;51.788;8.824;2022-10-15T01:44:44;99213.28;;;13.86;88.51
74613;BME280;63119;51.788;8.824;2022-10-15T01:50:03;99225.06;;;13.74;89.04
74613;BME280;63119;51.788;8.824;2022-10-15T01:52:33;99221.41;;;13.65;89.72
74613;BME280;63119;51.788;8.824;2022-10-15T01:55:02;99230.22;;;13.65;89.74
74613;BME280;63119;51.788;8.824;2022-10-15T01:57:31;99225.75;;;13.66;89.92
74613;BME280;63119;51.788;8.824;2022-10-15T01:59:57;99224.78;;;13.67;89.70
74613;BME280;63119;51.788;8.824;2022-10-15T02:02:23;99223.22;;;13.74;89.61
74613;BME280;63119;51.788;8.824;2022-10-15T02:04:48;99213.97;;;13.78;89.31
74613;BME280;63119;51.788;8.824;2022-10-15T02:07:27;99222.63;;;13.80;88.91
74613;BME280;63119;51.788;8.824;2022-10-15T02:10:08;99213.41;;;13.75;89.17
74613;BME280;63119;51.788;8.824;2022-10-15T02:12:47;99224.63;;;13.78;88.85
74613;BME280;63119;51.788;8.824;2022-10-15T02:15:35;99221.97;;;13.78;88.81
74613;BME280;63119;51.788;8.824;2022-10-15T02:18:02;99218.16;;;13.81;88.80
74613;BME280;63119;51.788;8.824;2022-10-15T02:20:34;99213.28;;;13.76;88.97
74613;BME280;63119;51.788;8.824;2022-10-15T02:23:35;99212.16;;;13.79;88.60
74613;BME280;63119;51.788;8.824;2022-10-15T02:26:04;99212.72;;;13.73;89.60
74613;BME280;63119;51.788;8.824;2022-10-15T02:28:32;99201.97;;;13.64;90.13
74613;BME280;63119;51.788;8.824;2022-10-15T02:31:00;99202.50;;;13.68;89.87
74613;BME280;63119;51.788;8.824;2022-10-15T02:33:28;99199.72;;;13.69;89.65
74613;BME280;63119;51.788;8.824;2022-10-15T02:35:55;99188.53;;;13.76;89.46
74613;BME280;63119;51.788;8.824;2022-10-15T02:38:24;99192.31;;;13.73;89.51
74613;BME280;63119;51.788;8.824;2022-10-15T02:40:50;99190.63;;;13.72;89.45
74613;BME280;63119;51.788;8.824;2022-10-15T02:43:19;99199.44;;;13.73;89.25
74613;BME280;63119;51.788;8.824;2022-10-15T02:45:46;99193.28;;;13.72;89.32
74613;BME280;63119;51.788;8.824;2022-10-15T02:48:11;99197.19;;;13.78;89.32
74613;BME280;63119;51.788;8.824;2022-10-15T02:50:36;99192.03;;;13.76;89.24
74613;BME280;63119;51.788;8.824;2022-10-15T02:53:02;99198.03;;;13.78;89.36
74613;BME280;63119;51.788;8.824;2022-10-15T02:55:28;99199.56;;;13.71;89.50
74613;BME280;63119;51.788;8.824;2022-10-15T02:57:53;99187.41;;;13.68;89.79
74613;BME280;63119;51.788;8.824;2022-10-15T03:00:18;99197.47;;;13.65;90.29
74613;BME280;63119;51.788;8.824;2022-10-15T03:02:44;99198.31;;;13.65;89.96
74613;BME280;63119;51.788;8.824;2022-10-15T03:05:09;99202.78;;;13.65;89.96
74613;BME280;63119;51.788;8.824;2022-10-15T03:07:35;99197.91;;;13.70;89.64
74613;BME280;63119;51.788;8.824;2022-10-15T03:10:01;99198.75;;;13.61;90.40
74613;BME280;63119;51.788;8.824;2022-10-15T03:12:26;99194.13;;;13.63;90.41
74613;BME280;63119;51.788;8.824;2022-10-15T03:14:52;99202.78;;;13.65;90.28
74613;BME280;63119;51.788;8.824;2022-10-15T03:17:17;99197.47;;;13.65;89.86
74613;BME280;63119;51.788;8.824;2022-10-15T03:19:43;99202.50;;;13.68;89.83
74613;BME280;63119;51.788;8.824;2022-10-15T03:22:08;99205.31;;;13.66;89.83
74613;BME280;63119;51.788;8.824;2022-10-15T03:24:34;99209.53;;;13.69;89.82
74613;BME280;63119;51.788;8.824;2022-10-15T03:26:59;99209.97;;;13.64;89.88
74613;BME280;63119;51.788;8.824;2022-10-15T03:29:24;99209.41;;;13.61;90.30
74613;BME280;63119;51.788;8.824;2022-10-15T03:31:50;99203.63;;;13.65;90.19
74613;BME280;63119;51.788;8.824;2022-10-15T03:34:15;99212.75;;;13.63;90.54
74613;BME280;63119;51.788;8.824;2022-10-15T03:36:41;99219.31;;;13.68;90.18
74613;BME280;63119;51.788;8.824;2022-10-15T03:39:06;99214.56;;;13.72;90.09
74613;BME280;63119;51.788;8.824;2022-10-15T03:41:32;99213.41;;;13.75;89.96
74613;BME280;63119;51.788;8.824;2022-10-15T03:44:01;99212.84;;;13.71;90.45
74613;BME280;63119;51.788;8.824;2022-10-15T03:46:27;99205.59;;;13.73;90.31
74613;BME280;63119;51.788;8.824;2022-10-15T03:48:53;99199.75;;;13.60;91.17
74613;BME280;63119;51.788;8.824;2022-10-15T03:51:18;99207.31;;;13.55;91.79
74613;BME280;63119;51.788;8.824;2022-10-15T03:53:43;99198.22;;;13.48;92.00
74613;BME280;63119;51.788;8.824;2022-10-15T03:56:09;99201.16;;;13.45;92.14
74613;BME280;63119;51.788;8.824;2022-10-15T03:58:34;99194.44;;;13.41;92.26
74613;BME280;63119;51.788;8.824;2022-10-15T04:00:59;99204.78;;;13.44;92.22
74613;BME280;63119;51.788;8.824;2022-10-15T04:03:25;99210.94;;;13.44;92.64
74613;BME280;63119;51.788;8.824;2022-10-15T04:05:51;99206.91;;;13.40;92.78
74613;BME280;63119;51.788;8.824;2022-10-15T04:08:16;99201.44;;;13.42;92.84
74613;BME280;63119;51.788;8.824;2022-10-15T04:10:42;99201.59;;;13.40;92.80
74613;BME280;63119;51.788;8.824;2022-10-15T04:13:07;99197.81;;;13.43;92.65
74613;BME280;63119;51.788;8.824;2022-10-15T04:15:33;99202.28;;;13.42;92.72
74613;BME280;63119;51.788;8.824;2022-10-15T04:17:58;99203.97;;;13.43;92.72
74613;BME280;63119;51.788;8.824;2022-10-15T04:20:23;99196.00;;;13.43;92.54
74613;BME280;63119;51.788;8.824;2022-10-15T04:22:48;99202.28;;;13.42;92.59
74613;BME280;63119;51.788;8.824;2022-10-15T04:25:14;99199.75;;;13.41;92.82
74613;BME280;63119;51.788;8.824;2022-10-15T04:27:39;99200.47;;;13.43;92.74
74613;BME280;63119;51.788;8.824;2022-10-15T04:30:05;99210.25;;;13.52;92.40
74613;BME280;63119;51.788;8.824;2022-10-15T04:32:30;99212.06;;;13.51;92.39
74613;BME280;63119;51.788;8.824;2022-10-15T04:34:56;99208.00;;;13.47;92.99
74613;BME280;63119;51.788;8.824;2022-10-15T04:37:21;99211.22;;;13.51;92.79
74613;BME280;63119;51.788;8.824;2022-10-15T04:39:46;99208.16;;;13.55;92.43
74613;BME280;63119;51.788;8.824;2022-10-15T04:42:11;99199.75;;;13.50;92.70
74613;BME280;63119;51.788;8.824;2022-10-15T04:44:37;99212.34;;;13.58;92.47
74613;BME280;63119;51.788;8.824;2022-10-15T04:47:02;99207.72;;;13.60;92.39
74613;BME280;63119;51.788;8.824;2022-10-15T04:49:27;99208.56;;;13.60;92.46
74613;BME280;63119;51.788;8.824;2022-10-15T04:51:53;99203.94;;;13.53;92.63
74613;BME280;63119;51.788;8.824;2022-10-15T04:54:18;99203.13;;;13.52;93.30
74613;BME280;63119;51.788;8.824;2022-10-15T04:56:43;99200.59;;;13.51;93.48
74613;BME280;63119;51.788;8.824;2022-10-15T04:59:09;99209.69;;;13.58;93.04
74613;BME280;63119;51.788;8.824;2022-10-15T05:01:34;99207.31;;;13.64;92.71
74613;BME280;63119;51.788;8.824;2022-10-15T05:03:59;99206.72;;;13.71;92.33
74613;BME280;63119;51.788;8.824;2022-10-15T05:06:24;99212.72;;;13.73;92.33
74613;BME280;63119;51.788;8.824;2022-10-15T05:08:51;99213.41;;;13.75;92.16
74613;BME280;63119;51.788;8.824;2022-10-15T05:11:25;99213.28;;;13.76;92.12
74613;BME280;63119;51.788;8.824;2022-10-15T05:13:51;99214.25;;;13.75;92.11
74613;BME280;63119;51.788;8.824;2022-10-15T05:16:23;99216.53;;;13.70;92.64
74613;BME280;63119;51.788;8.824;2022-10-15T05:18:51;99215.81;;;13.68;92.75
74613;BME280;63119;51.788;8.824;2022-10-15T05:21:18;99216.81;;;13.67;93.14
74613;BME280;63119;51.788;8.824;2022-10-15T05:23:43;99225.19;;;13.72;92.80
74613;BME280;63119;51.788;8.824;2022-10-15T05:26:12;99228.53;;;13.74;92.71
74613;BME280;63119;51.788;8.824;2022-10-15T05:28:38;99228.97;;;13.69;92.97
74613;BME280;63119;51.788;8.824;2022-10-15T05:31:08;99233.84;;;13.74;92.72
74613;BME280;63119;51.788;8.824;2022-10-15T05:33:34;99227.28;;;13.78;92.52
74613;BME280;63119;51.788;8.824;2022-10-15T05:36:11;99231.91;;;13.76;92.68
74613;BME280;63119;51.788;8.824;2022-10-15T05:38:37;99221.81;;;13.80;92.47
74613;BME280;63119;51.788;8.824;2022-10-15T05:41:03;99227.44;;;13.77;92.73
74613;BME280;63119;51.788;8.824;2022-10-15T05:43:28;99223.22;;;13.74;92.80
74613;BME280;63119;51.788;8.824;2022-10-15T05:45:54;99226.88;;;13.73;92.92
74613;BME280;63119;51.788;8.824;2022-10-15T05:48:19;99228.69;;;13.73;93.03
74613;BME280;63119;51.788;8.824;2022-10-15T05:50:45;99230.22;;;13.75;92.99
74613;BME280;63119;51.788;8.824;2022-10-15T05:53:10;99233.56;;;13.77;92.94
74613;BME280;63119;51.788;8.824;2022-10-15T05:55:35;99231.63;;;13.79;93.00
74613;BME280;63119;51.788;8.824;2022-10-15T05:58:02;99234.28;;;13.79;92.61
74613;BME280;63119;51.788;8.824;2022-10-15T06:00:27;99235.13;;;13.80;92.74
74613;BME280;63119;51.788;8.824;2022-10-15T06:02:53;99233.28;;;13.80;92.79
74613;BME280;63119;51.788;8.824;2022-10-15T06:05:18;99237.22;;;13.86;92.44
74613;BME280;63119;51.788;8.824;2022-10-15T06:07:43;99233.41;;;13.88;92.49
74613;BME280;63119;51.788;8.824;2022-10-15T06:10:09;99239.44;;;13.90;92.28
74613;BME280;63119;51.788;8.824;2022-10-15T06:12:34;99245.44;;;13.92;92.07
74613;BME280;63119;51.788;8.824;2022-10-15T06:14:59;99245.44;;;13.92;92.31
74613;BME280;63119;51.788;8.824;2022-10-15T06:17:25;99247.81;;;13.95;91.94
74613;BME280;63119;51.788;8.824;2022-10-15T06:19:50;99249.78;;;13.93;92.03
74613;BME280;63119;51.788;8.824;2022-10-15T06:22:16;99252.25;;;14.04;92.14
74613;BME280;63119;51.788;8.824;2022-10-15T06:24:41;99252.13;;;14.06;92.06
74613;BME280;63119;51.788;8.824;2022-10-15T06:27:06;99253.38;;;14.11;91.67
74613;BME280;63119;51.788;8.824;2022-10-15T06:29:33;99258.03;;;14.00;91.98
74613;BME280;63119;51.788;8.824;2022-10-15T06:31:58;99253.00;;;13.97;92.18
74613;BME280;63119;51.788;8.824;2022-10-15T06:34:23;99259.28;;;14.05;91.89
74613;BME280;63119;51.788;8.824;2022-10-15T06:36:48;99261.38;;;14.02;91.71
74613;BME280;63119;51.788;8.824;2022-10-15T06:39:14;99272.16;;;14.10;91.71
74613;BME280;63119;51.788;8.824;2022-10-15T06:41:39;99270.03;;;14.13;91.36
74613;BME280;63119;51.788;8.824;2022-10-15T06:44:04;99268.22;;;14.14;91.13
74613;BME280;63119;51.788;8.824;2022-10-15T06:46:29;99262.88;;;14.14;91.05
74613;BME280;63119;51.788;8.824;2022-10-15T06:48:55;99255.31;;;14.19;91.14
74613;BME280;63119;51.788;8.824;2022-10-15T06:51:20;99257.16;;;14.18;91.03
74613;BME280;63119;51.788;8.824;2022-10-15T06:53:45;99261.81;;;14.07;91.69
74613;BME280;63119;51.788;8.824;2022-10-15T06:56:10;99268.78;;;14.08;92.04
74613;BME280;63119;51.788;8.824;2022-10-15T06:58:36;99272.84;;;14.12;91.60
74613;BME280;63119;51.788;8.824;2022-10-15T07:01:03;99271.84;;;14.22;91.11
74613;BME280;63119;51.788;8.824;2022-10-15T07:03:29;99280.38;;;14.36;91.01
74613;BME280;63119;51.788;8.824;2022-10-15T07:05:55;99283.59;;;14.39;90.03
74613;BME280;63119;51.788;8.824;2022-10-15T07:08:20;99290.56;;;14.50;89.80
74613;BME280;63119;51.788;8.824;2022-10-15T07:10:46;99291.84;;;14.46;89.59
74613;BME280;63119;51.788;8.824;2022-10-15T07:13:11;99297.84;;;14.48;89.97
74613;BME280;63119;51.788;8.824;2022-10-15T07:15:36;99294.50;;;14.46;90.13
74613;BME280;63119;51.788;8.824;2022-10-15T07:18:02;99297.00;;;14.47;89.83
74613;BME280;63119;51.788;8.824;2022-10-15T07:20:29;99311.03;;;14.30;90.68
74613;BME280;63119;51.788;8.824;2022-10-15T07:22:59;99298.16;;;14.26;90.43
74613;BME280;63119;51.788;8.824;2022-10-15T07:25:25;99307.13;;;14.24;90.99
74613;BME280;63119;51.788;8.824;2022-10-15T07:27:50;99306.31;;;14.14;91.36
74613;BME280;63119;51.788;8.824;2022-10-15T07:30:16;99320.28;;;14.26;91.56
74613;BME280;63119;51.788;8.824;2022-10-15T07:32:41;99308.53;;;14.29;91.24
74613;BME280;63119;51.788;8.824;2022-10-15T07:35:08;99311.59;;;14.24;90.82
74613;BME280;63119;51.788;8.824;2022-10-15T07:37:33;99316.25;;;14.12;91.26
74613;BME280;63119;51.788;8.824;2022-10-15T07:39:58;99323.78;;;14.17;91.27
74613;BME280;63119;51.788;8.824;2022-10-15T07:42:24;99328.69;;;14.21;91.10
74613;BME280;63119;51.788;8.824;2022-10-15T07:44:50;99323.09;;;14.24;90.93
74613;BME280;63119;51.788;8.824;2022-10-15T07:47:15;99322.41;;;14.22;91.78
74613;BME280;63119;51.788;8.824;2022-10-15T07:49:40;99328.44;;;14.34;91.38
74613;BME280;63119;51.788;8.824;2022-10-15T07:52:06;99326.97;;;14.59;90.26
74613;BME280;63119;51.788;8.824;2022-10-15T07:54:32;99326.50;;;15.00;88.10
74613;BME280;63119;51.788;8.824;2022-10-15T07:56:58;99328.19;;;15.01;87.04
74613;BME280;63119;51.788;8.824;2022-10-15T07:59:23;99317.63;;;15.09;86.56
74613;BME280;63119;51.788;8.824;2022-10-15T08:01:48;99323.44;;;15.22;86.26
74613;BME280;63119;51.788;8.824;2022-10-15T08:04:15;99322.28;;;15.70;85.19
74613;BME280;63119;51.788;8.824;2022-10-15T08:06:40;99318.50;;;16.41;84.12
74613;BME280;63119;51.788;8.824;2022-10-15T08:09:06;99312.69;;;16.72;81.54
74613;BME280;63119;51.788;8.824;2022-10-15T08:11:31;99311.91;;;17.21;79.00
74613;BME280;63119;51.788;8.824;2022-10-15T08:13:56;99314.63;;;17.45;77.79
74613;BME280;63119;51.788;8.824;2022-10-15T08:16:21;99317.56;;;17.84;75.82
74613;BME280;63119;51.788;8.824;2022-10-15T08:18:47;99314.56;;;18.28;75.81
74613;BME280;63119;51.788;8.824;2022-10-15T08:21:12;99323.59;;;18.19;72.82
74613;BME280;63119;51.788;8.824;2022-10-15T08:23:38;99318.09;;;18.04;73.42
74613;BME280;63119;51.788;8.824;2022-10-15T08:26:03;99316.84;;;17.00;76.03
74613;BME280;63119;51.788;8.824;2022-10-15T08:28:30;99309.78;;;16.57;78.07
74613;BME280;63119;51.788;8.824;2022-10-15T08:30:57;99311.47;;;16.92;77.90
74613;BME280;63119;51.788;8.824;2022-10-15T08:33:23;99299.41;;;16.88;75.99
74613;BME280;63119;51.788;8.824;2022-10-15T08:35:49;99302.56;;;17.33;76.65
74613;BME280;63119;51.788;8.824;2022-10-15T08:38:15;99302.84;;;17.88;73.78
74613;BME280;63119;51.788;8.824;2022-10-15T08:40:46;99289.47;;;18.13;73.38
74613;BME280;63119;51.788;8.824;2022-10-15T08:43:19;99292.63;;;18.16;73.04
74613;BME280;63119;51.788;8.824;2022-10-15T08:45:46;99292.00;;;18.85;70.43
74613;BME280;63119;51.788;8.824;2022-10-15T08:48:20;99292.75;;;18.63;70.28
74613;BME280;63119;51.788;8.824;2022-10-15T08:50:58;99294.59;;;18.46;69.97
74613;BME280;63119;51.788;8.824;2022-10-15T08:53:24;99292.63;;;18.24;69.68
74613;BME280;63119;51.788;8.824;2022-10-15T08:55:54;99286.56;;;18.46;70.44
74613;BME280;63119;51.788;8.824;2022-10-15T08:58:26;99278.44;;;18.87;67.68
74613;BME280;63119;51.788;8.824;2022-10-15T09:01:03;99280.84;;;19.35;68.51
74613;BME280;63119;51.788;8.824;2022-10-15T09:06:29;99272.97;;;18.72;66.31
74613;BME280;63119;51.788;8.824;2022-10-15T09:14:28;99288.38;;;19.09;67.22
74613;BME280;63119;51.788;8.824;2022-10-15T09:16:59;99280.56;;;18.99;66.37
74613;BME280;63119;51.788;8.824;2022-10-15T09:19:27;99274.13;;;18.78;67.10
74613;BME280;63119;51.788;8.824;2022-10-15T09:21:53;99264.81;;;18.49;66.46
74613;BME280;63119;51.788;8.824;2022-10-15T09:24:24;99265.09;;;18.71;66.52
74613;BME280;63119;51.788;8.824;2022-10-15T09:29:38;99267.88;;;19.16;65.54
74613;BME280;63119;51.788;8.824;2022-10-15T09:32:14;99277.84;;;18.61;66.73
74613;BME280;63119;51.788;8.824;2022-10-15T09:34:51;99278.22;;;19.27;64.30
74613;BME280;63119;51.788;8.824;2022-10-15T09:40:23;99276.31;;;19.44;64.17
74613;BME280;63119;51.788;8.824;2022-10-15T09:42:52;99280.03;;;19.66;63.31
74613;BME280;63119;51.788;8.824;2022-10-15T09:45:21;99283.75;;;19.26;63.38
74613;BME280;63119;51.788;8.824;2022-10-15T09:47:48;99280.50;;;19.07;63.38
74613;BME280;63119;51.788;8.824;2022-10-15T09:50:14;99273.66;;;19.36;63.61
74613;BME280;63119;51.788;8.824;2022-10-15T09:55:42;99267.44;;;19.35;63.71
74613;BME280;63119;51.788;8.824;2022-10-15T09:58:27;99265.97;;;18.94;64.95
74613;BME280;63119;51.788;8.824;2022-10-15T10:01:00;99277.28;;;19.12;63.82
74613;BME280;63119;51.788;8.824;2022-10-15T10:03:29;99259.31;;;18.51;67.25
74613;BME280;63119;51.788;8.824;2022-10-15T10:05:59;99270.19;;;18.49;66.60
74613;BME280;63119;51.788;8.824;2022-10-15T10:08:27;99274.03;;;18.94;66.73
74613;BME280;63119;51.788;8.824;2022-10-15T10:11:03;99268.28;;;19.05;63.30
74613;BME280;63119;51.788;8.824;2022-10-15T10:13:29;99273.47;;;19.45;64.90
74613;BME280;63119;51.788;8.824;2022-10-15T10:16:02;99270.00;;;19.59;64.53
74613;BME280;63119;51.788;8.824;2022-10-15T10:18:28;99281.69;;;19.67;62.30
74613;BME280;63119;51.788;8.824;2022-10-15T10:20:58;99287.00;;;19.75;62.86
74613;BME280;63119;51.788;8.824;2022-10-15T10:23:31;99284.19;;;19.06;63.25
74613;BME280;63119;51.788;8.824;2022-10-15T10:25:59;99291.59;;;19.04;65.22
74613;BME280;63119;51.788;8.824;2022-10-15T10:28:43;99291.78;;;18.95;65.39
74613;BME280;63119;51.788;8.824;2022-10-15T10:31:11;99291.56;;;18.66;65.64
74613;BME280;63119;51.788;8.824;2022-10-15T10:33:44;99286.56;;;18.46;66.19
74613;BME280;63119;51.788;8.824;2022-10-15T10:36:30;99289.28;;;18.38;67.32
74613;BME280;63119;51.788;8.824;2022-10-15T10:41:53;99280.28;;;18.86;65.72
74613;BME280;63119;51.788;8.824;2022-10-15T10:44:37;99282.16;;;18.78;65.20
74613;BME280;63119;51.788;8.824;2022-10-15T10:47:18;99278.72;;;18.92;65.89
74613;BME280;63119;51.788;8.824;2022-10-15T10:49:51;99274.44;;;19.14;65.23
74613;BME280;63119;51.788;8.824;2022-10-15T10:54:43;99265.56;;;19.44;61.99
74613;BME280;63119;51.788;8.824;2022-10-15T10:57:10;99265.28;;;19.61;61.00
74613;BME280;63119;51.788;8.824;2022-10-15T10:59:49;99252.44;;;19.49;60.74
74613;BME280;63119;51.788;8.824;2022-10-15T11:02:15;99254.03;;;19.35;60.89
74613;BME280;63119;51.788;8.824;2022-10-15T11:04:41;99251.44;;;19.19;61.06
74613;BME280;63119;51.788;8.824;2022-10-15T11:12:31;99248.19;;;19.01;62.30
74613;BME280;63119;51.788;8.824;2022-10-15T11:20:44;99221.94;;;19.73;60.36
74613;BME280;63119;51.788;8.824;2022-10-15T11:28:55;99219.19;;;20.10;59.13
74613;BME280;63119;51.788;8.824;2022-10-15T11:31:52;99219.66;;;19.99;59.08
74613;BME280;63119;51.788;8.824;2022-10-15T11:39:44;99215.41;;;19.67;60.64
74613;BME280;63119;51.788;8.824;2022-10-15T11:42:37;99221.06;;;19.27;61.60
74613;BME280;63119;51.788;8.824;2022-10-15T11:45:26;99209.03;;;18.92;62.20
74613;BME280;63119;51.788;8.824;2022-10-15T11:48:17;99220.25;;;18.95;63.04
74613;BME280;63119;51.788;8.824;2022-10-15T11:50:55;99213.97;;;19.03;62.21
74613;BME280;63119;51.788;8.824;2022-10-15T11:53:50;99214.94;;;19.10;62.25
74613;BME280;63119;51.788;8.824;2022-10-15T11:56:29;99212.28;;;19.10;62.25
74613;BME280;63119;51.788;8.824;2022-10-15T12:02:09;99213.25;;;18.86;63.33
74613;BME280;63119;51.788;8.824;2022-10-15T12:04:43;99212.13;;;18.81;63.06
74613;BME280;63119;51.788;8.824;2022-10-15T12:07:15;99215.84;;;18.72;63.11
74613;BME280;63119;51.788;8.824;2022-10-15T12:09:46;99199.56;;;18.73;63.71
74613;BME280;63119;51.788;8.824;2022-10-15T12:12:27;99197.44;;;18.61;63.86
74613;BME280;63119;51.788;8.824;2022-10-15T12:20:25;99186.91;;;18.59;65.23
74613;BME280;63119;51.788;8.824;2022-10-15T12:28:11;99175.91;;;18.38;65.35
74613;BME280;63119;51.788;8.824;2022-10-15T12:30:39;99175.28;;;18.36;65.47
74613;BME280;63119;51.788;8.824;2022-10-15T12:33:28;99170.06;;;18.34;66.16
74613;BME280;63119;51.788;8.824;2022-10-15T12:35:57;99170.72;;;18.36;66.02
74613;BME280;63119;51.788;8.824;2022-10-15T12:41:03;99157.56;;;18.27;67.23
74613;BME280;63119;51.788;8.824;2022-10-15T12:43:30;99158.22;;;18.29;66.94
74613;BME280;63119;51.788;8.824;2022-10-15T12:46:00;99161.09;;;18.19;67.51
74613;BME280;63119;51.788;8.824;2022-10-15T12:48:35;99172.44;;;18.21;68.72
74613;BME280;63119;51.788;8.824;2022-10-15T12:53:46;99169.47;;;18.16;70.39
74613;BME280;63119;51.788;8.824;2022-10-15T12:56:21;99169.50;;;18.00;72.14
74613;BME280;63119;51.788;8.824;2022-10-15T12:58:52;99174.22;;;17.90;72.94
74613;BME280;63119;51.788;8.824;2022-10-15T13:08:49;99154.94;;;18.02;74.91
74613;BME280;63119;51.788;8.824;2022-10-15T13:11:37;99156.16;;;17.84;75.06
74613;BME280;63119;51.788;8.824;2022-10-15T13:16:36;99153.28;;;18.01;75.88
74613;BME280;63119;51.788;8.824;2022-10-15T13:19:02;99148.22;;;18.07;76.03
74613;BME280;63119;51.788;8.824;2022-10-15T13:24:16;99142.63;;;17.77;76.98
74613;BME280;63119;51.788;8.824;2022-10-15T13:26:42;99147.31;;;17.67;77.61
74613;BME280;63119;51.788;8.824;2022-10-15T13:29:14;99156.03;;;17.61;78.12
74613;BME280;63119;51.788;8.824;2022-10-15T13:31:40;99150.84;;;17.68;78.58
74613;BME280;63119;51.788;8.824;2022-10-15T13:36:45;99135.78;;;17.42;80.10
74613;BME280;63119;51.788;8.824;2022-10-15T13:42:07;99137.47;;;17.11;82.01
74613;BME280;63119;51.788;8.824;2022-10-15T13:44:33;99129.41;;;17.03;82.98
74613;BME280;63119;51.788;8.824;2022-10-15T13:46:58;99129.09;;;17.14;82.64
74613;BME280;63119;51.788;8.824;2022-10-15T13:49:24;99131.44;;;17.17;81.80
74613;BME280;63119;51.788;8.824;2022-10-15T13:51:51;99129.09;;;17.14;82.81
74613;BME280;63119;51.788;8.824;2022-10-15T13:54:22;99132.59;;;17.15;82.62
74613;BME280;63119;51.788;8.824;2022-10-15T13:56:53;99140.81;;;17.29;82.28
74613;BME280;63119;51.788;8.824;2022-10-15T13:59:20;99134.94;;;17.34;81.10
74613;BME280;63119;51.788;8.824;2022-10-15T14:01:50;99133.94;;;17.43;81.92
74613;BME280;63119;51.788;8.824;2022-10-15T14:04:18;99131.44;;;17.33;80.57
74613;BME280;63119;51.788;8.824;2022-10-15T14:07:03;99132.09;;;17.52;80.00
74613;BME280;63119;51.788;8.824;2022-10-15T14:09:31;99137.59;;;17.66;79.50
74613;BME280;63119;51.788;8.824;2022-10-15T14:11:57;99137.78;;;17.73;78.04
74613;BME280;63119;51.788;8.824;2022-10-15T14:14:35;99130.09;;;17.78;77.07
74613;BME280;63119;51.788;8.824;2022-10-15T14:17:06;99127.88;;;17.89;75.65
74613;BME280;63119;51.788;8.824;2022-10-15T14:19:34;99133.38;;;17.96;75.78
74613;BME280;63119;51.788;8.824;2022-10-15T14:22:01;99119.13;;;18.03;75.06
74613;BME280;63119;51.788;8.824;2022-10-15T14:24:36;99126.31;;;18.11;75.15
74613;BME280;63119;51.788;8.824;2022-10-15T14:27:05;99123.28;;;18.14;74.69
74613;BME280;63119;51.788;8.824;2022-10-15T14:29:48;99124.94;;;18.23;73.99
74613;BME280;63119;51.788;8.824;2022-10-15T14:32:20;99126.22;;;18.27;74.03
74613;BME280;63119;51.788;8.824;2022-10-15T14:34:47;99122.06;;;18.25;73.55
74613;BME280;63119;51.788;8.824;2022-10-15T14:42:46;99136.22;;;18.41;73.15
74613;BME280;63119;51.788;8.824;2022-10-15T14:45:38;99142.25;;;18.43;73.47
74613;BME280;63119;51.788;8.824;2022-10-15T14:48:15;99133.38;;;18.43;73.94